Aérodrome :
LOGIN :

S'inscrire | Disclaimer

   EN    FR    IT 

 










Légende :    VFR   VFR Marginal   IFR   IFR Intensif   IFR Très Intensif
Visi : 
Plafond : 
>= 8 km
>= 3000ft
5 à 8 km
1000 à 3000 ft
1500m à 5 km
500 à 1000 ft
800 à 1500m
200 à 500 ft
< 800m
< 200 ft
Symboles :   Orages  Brouillard  Fortes neiges  Fortes précipitations  Vent > 20 kt
SIGMETs :   Divers  Orages  Givrage  Turbulence  Onde Orograph.  Cendres Volcan.






- Altitude de l'aérodrome : 59 ft
- Code IATA : TSF


LIPH - Treviso

DERNIER METAR :
  • 171020Z 05009KT 9999 SCT040 14/13 Q1003

METARs EXPIRÉS :
  • 170950Z 03009KT 9999 -RA SCT030 13/12 Q1003
  • 170920Z 03007KT 350V070 9999 SCT040 12/11 Q1003
  • 170850Z 34005KT 300V020 8000 FEW020 SCT040 11/11 Q1003
  • 170820Z 31007KT 280V340 5000 -RA FEW010 BKN030 11/11 Q1004 RETSRA
  • 170750Z 25006KT 230V290 1500 TSRA SCT008 BKN030CB 12/12 Q1004

TAF TAF LIPH
Valide du 17 à 06h jusqu'au 18 à 06h UTC


170500Z 1706/1806 04012KT 4000 RA BKN020 BKN050
TEMPO 1707/1712 3000 TSRA
BECMG 1708/1710 15015G25KT
BECMG 1712/1714 8000 NSW



MET'MAP, la Météo Aéronautique d'un coup d'oeil ! - Copyright ORBIFLY Décembre 2007 - Disclaimer

ORBIFLY MET'MAP TEAM :

Programmation & Développement : Alexandra Zaïnal
Conception & Développement : Baudouin d'Aumeries
Co-Programmation & Développement : Marc-Olivier Méhu
Soutien technique & logistique : Manuel Goepfert

Contact : metmap@orbifly.com




SOURCES & CREDITS :

   NOAA